Time;durP1;ratioP1;P1;durP2;ratioP2;P2;SDS_P1;SDS_P2;PMS_P1;PMS_P2;Temp;Humidity;BMP_temperature;BMP_pressure;BME280_temperature;BME280_humidity;BME280_pressure;Samples;Min_cycle;Max_cycle;Signal;HPM_P1;HPM_P2
2022/12/13 00:01:49;;;;;;;1999.90;999.90;;;-2.00;99.90;;;;;;5014379;28;20497;-69
2022/12/13 00:04:16;;;;;;;1999.90;999.90;;;-2.00;99.90;;;;;;5014702;28;20538;-68
2022/12/13 00:06:42;;;;;;;1999.90;999.90;;;-2.00;99.90;;;;;;5013856;28;20200;-68
2022/12/13 00:09:09;;;;;;;1999.90;999.90;;;-2.00;99.90;;;;;;5014734;28;20173;-69
2022/12/13 00:11:34;;;;;;;1999.90;999.90;;;-1.90;99.90;;;;;;5015370;28;20189;-69
2022/12/13 00:14:00;;;;;;;1999.90;999.90;;;-1.90;99.90;;;;;;5014183;28;20169;-69
2022/12/13 00:16:26;;;;;;;1999.90;999.90;;;-2.00;99.90;;;;;;5015831;28;20241;-69
2022/12/13 00:18:55;;;;;;;1999.90;999.90;;;-2.00;99.90;;;;;;5013902;28;20400;-68
2022/12/13 00:21:23;;;;;;;1999.90;999.90;;;-2.00;99.90;;;;;;5015119;28;20225;-69
2022/12/13 00:23:48;;;;;;;1999.90;999.90;;;-2.00;99.90;;;;;;5014111;28;20176;-67
2022/12/13 00:26:20;;;;;;;1999.90;999.90;;;-2.00;1.00;;;;;;5013586;28;20268;-67
2022/12/13 00:28:48;;;;;;;1999.90;999.90;;;-2.00;99.90;;;;;;5013690;28;20169;-67
2022/12/13 00:31:14;;;;;;;1999.90;999.90;;;-2.10;99.90;;;;;;5014075;28;20285;-68
2022/12/13 00:33:40;;;;;;;1999.90;999.90;;;-2.10;99.90;;;;;;5014273;28;20685;-68
2022/12/13 00:36:08;;;;;;;1999.90;999.90;;;-2.10;99.90;;;;;;5014629;28;20177;-67
2022/12/13 00:38:34;;;;;;;1999.90;999.90;;;-2.10;99.90;;;;;;5014361;28;20416;-67
2022/12/13 00:41:16;;;;;;;1999.90;999.90;;;-2.20;99.90;;;;;;5016022;28;20228;-68
2022/12/13 00:43:42;;;;;;;1999.90;999.90;;;-2.10;99.90;;;;;;5015141;28;20169;-69
2022/12/13 00:46:16;;;;;;;1999.90;999.90;;;-2.10;99.90;;;;;;5013840;28;20231;-68
2022/12/13 00:48:43;;;;;;;1999.90;999.90;;;-2.20;99.90;;;;;;5014632;28;20550;-67
2022/12/13 00:51:11;;;;;;;1999.90;999.90;;;-2.20;99.90;;;;;;5013002;28;20229;-68
2022/12/13 00:53:37;;;;;;;1999.90;999.90;;;-2.30;99.90;;;;;;5015485;28;20307;-68
2022/12/13 00:56:04;;;;;;;1999.90;999.90;;;-2.40;99.90;;;;;;5013619;28;20177;-68
2022/12/13 00:58:29;;;;;;;1999.90;999.90;;;-2.40;99.90;;;;;;5014265;28;20635;-67
2022/12/13 01:01:07;;;;;;;1999.90;999.90;;;-2.50;99.90;;;;;;5014168;28;20205;-67
2022/12/13 01:03:32;;;;;;;1999.90;999.90;;;-2.50;99.90;;;;;;5014402;28;20481;-68
2022/12/13 01:05:58;;;;;;;1999.90;999.90;;;-2.50;99.90;;;;;;5013247;28;20205;-69
2022/12/13 01:08:25;;;;;;;1999.90;999.90;;;-2.50;99.90;;;;;;5014025;28;20248;-68
2022/12/13 01:10:50;;;;;;;1999.90;999.90;;;-2.50;99.90;;;;;;5013516;28;20264;-68
2022/12/13 01:13:16;;;;;;;1999.90;999.90;;;-2.50;99.90;;;;;;5013733;28;20204;-66
2022/12/13 01:15:43;;;;;;;1999.90;999.90;;;-2.50;99.90;;;;;;5014220;28;20228;-69
2022/12/13 01:18:10;;;;;;;1999.90;999.90;;;-2.50;99.90;;;;;;5014735;28;20694;-68
2022/12/13 01:20:36;;;;;;;1999.90;999.90;;;-2.50;99.90;;;;;;5013449;28;20176;-69
2022/12/13 01:23:02;;;;;;;1999.90;999.90;;;-2.60;99.90;;;;;;5013854;28;20260;-67
2022/12/13 01:25:28;;;;;;;1999.90;999.90;;;-2.60;99.90;;;;;;5012252;28;20569;-69
2022/12/13 01:27:53;;;;;;;1999.90;999.90;;;-2.60;99.90;;;;;;5012341;28;20169;-67
2022/12/13 01:30:19;;;;;;;1999.90;999.90;;;-2.60;99.90;;;;;;5013101;28;20169;-68
2022/12/13 01:32:44;;;;;;;1999.90;999.90;;;-2.60;99.90;;;;;;5013125;28;20560;-68
2022/12/13 01:35:12;;;;;;;1999.90;999.90;;;-2.60;99.90;;;;;;5014896;28;20165;-68
2022/12/13 01:37:38;;;;;;;1999.90;999.90;;;-2.60;99.90;;;;;;5012686;28;20195;-66
2022/12/13 01:40:03;;;;;;;1999.90;999.90;;;-2.60;99.90;;;;;;5013606;28;20173;-67
2022/12/13 01:42:29;;;;;;;1999.90;999.90;;;-2.60;99.90;;;;;;5012781;28;20189;-68
2022/12/13 01:44:57;;;;;;;1999.90;999.90;;;-2.70;99.90;;;;;;5013389;28;20412;-67
2022/12/13 01:47:32;;;;;;;1999.90;999.90;;;-2.60;99.90;;;;;;5013330;28;20625;-67
2022/12/13 01:50:01;;;;;;;1999.90;999.90;;;-2.70;99.90;;;;;;5012900;28;20169;-67
2022/12/13 01:52:30;;;;;;;1999.90;999.90;;;-2.70;99.90;;;;;;5012280;28;20193;-68
2022/12/13 01:54:58;;;;;;;1999.90;999.90;;;-2.80;99.90;;;;;;5012981;28;20685;-68
2022/12/13 01:57:24;;;;;;;1999.90;999.90;;;-2.80;99.90;;;;;;5012711;28;20260;-69
2022/12/13 01:59:52;;;;;;;1999.90;999.90;;;-2.80;99.90;;;;;;5012418;28;20545;-67
2022/12/13 02:02:17;;;;;;;1999.90;999.90;;;-2.70;99.90;;;;;;5011877;28;20215;-68
2022/12/13 02:05:11;;;;;;;1999.90;999.90;;;-2.80;99.90;;;;;;5012590;28;20654;-67
2022/12/13 02:07:39;;;;;;;1999.90;999.90;;;-2.70;1.00;;;;;;5011860;28;20616;-69
2022/12/13 02:10:06;;;;;;;1999.90;999.90;;;-2.80;1.00;;;;;;5012755;28;20173;-67
2022/12/13 02:12:35;;;;;;;1999.90;999.90;;;-2.80;1.00;;;;;;5011814;28;20678;-68
2022/12/13 02:15:15;;;;;;;1999.90;999.90;;;-2.80;1.00;;;;;;5012031;28;20646;-68
2022/12/13 02:18:05;;;;;;;1999.90;999.90;;;-2.80;1.00;;;;;;5012145;28;20586;-67
2022/12/13 02:20:53;;;;;;;1999.90;999.90;;;-2.90;1.00;;;;;;4995652;28;20177;-67
2022/12/13 02:23:22;;;;;;;1999.90;999.90;;;-2.80;1.00;;;;;;5013261;28;20161;-67
2022/12/13 02:26:05;;;;;;;1999.90;999.90;;;-2.80;1.00;;;;;;5012156;28;20212;-67
2022/12/13 02:28:56;;;;;;;1999.90;999.90;;;-2.80;1.00;;;;;;5012991;28;20648;-68
2022/12/13 02:31:31;;;;;;;1999.90;999.90;;;-2.80;1.00;;;;;;5012752;28;20189;-69
2022/12/13 02:34:09;;;;;;;1999.90;999.90;;;-2.90;1.00;;;;;;5012288;28;20196;-67
2022/12/13 02:36:40;;;;;;;1999.90;999.90;;;-2.90;1.00;;;;;;5012427;28;20169;-68
2022/12/13 02:39:18;;;;;;;1999.90;999.90;;;-2.90;1.00;;;;;;5016714;28;20173;-68
2022/12/13 02:41:55;;;;;;;1999.90;999.90;;;-2.90;1.00;;;;;;5016037;28;20690;-69
2022/12/13 02:44:25;;;;;;;1999.90;999.90;;;-2.90;1.00;;;;;;5016975;28;20173;-67
2022/12/13 02:46:53;;;;;;;1999.90;999.90;;;-3.00;1.00;;;;;;5015462;28;20303;-68
2022/12/13 02:49:21;;;;;;;1999.90;999.90;;;-3.00;1.00;;;;;;5016252;28;20181;-67
2022/12/13 02:51:48;;;;;;;1999.90;999.90;;;-3.00;1.00;;;;;;5016548;28;20264;-67
2022/12/13 02:54:14;;;;;;;1999.90;999.90;;;-3.00;1.00;;;;;;5016026;28;20169;-68
2022/12/13 02:56:40;;;;;;;1999.90;999.90;;;-3.00;1.00;;;;;;5016397;28;20540;-69
2022/12/13 02:59:13;;;;;;;1999.90;999.90;;;-2.90;1.00;;;;;;5016640;28;20169;-69
2022/12/13 03:02:03;;;;;;;1999.90;999.90;;;-3.00;1.00;;;;;;5014918;28;20205;-67
2022/12/13 03:08:00;;;;;;;1999.90;999.90;;;-3.10;1.00;;;;;;5015397;28;20598;-68
2022/12/13 03:10:41;;;;;;;1999.90;999.90;;;-3.10;1.00;;;;;;5015877;28;20165;-68
2022/12/13 03:15:58;;;;;;;1999.90;999.90;;;-3.10;1.00;;;;;;5016247;28;20188;-67
2022/12/13 03:18:27;;;;;;;1999.90;999.90;;;-3.10;1.00;;;;;;5016098;28;20177;-69
2022/12/13 03:20:57;;;;;;;1999.90;999.90;;;-3.10;1.00;;;;;;5016100;28;20224;-67
2022/12/13 03:23:23;;;;;;;1999.90;999.90;;;-3.10;1.00;;;;;;5014633;28;20177;-68
2022/12/13 03:25:57;;;;;;;1999.90;999.90;;;-3.10;1.00;;;;;;5015032;28;20197;-67
2022/12/13 03:28:23;;;;;;;1999.90;999.90;;;-3.10;1.00;;;;;;5015182;28;20161;-67
2022/12/13 03:30:48;;;;;;;1999.90;999.90;;;-3.20;1.00;;;;;;5015252;28;20665;-67
2022/12/13 03:33:14;;;;;;;1999.90;999.90;;;-3.20;1.00;;;;;;5015288;28;20910;-68
2022/12/13 03:35:41;;;;;;;1999.90;999.90;;;-3.10;1.00;;;;;;5014557;28;20177;-68
2022/12/13 03:38:07;;;;;;;1999.90;999.90;;;-3.20;1.00;;;;;;5015175;28;20169;-68
2022/12/13 03:40:33;;;;;;;1999.90;999.90;;;-3.20;1.00;;;;;;5015212;28;20188;-66
2022/12/13 03:42:59;;;;;;;1999.90;999.90;;;-3.20;1.00;;;;;;5016422;28;20169;-67
2022/12/13 03:45:25;;;;;;;1999.90;999.90;;;-3.30;1.00;;;;;;5015316;28;20623;-69
2022/12/13 03:47:50;;;;;;;1999.90;999.90;;;-3.30;1.00;;;;;;5014519;28;20180;-67
2022/12/13 03:50:16;;;;;;;1999.90;999.90;;;-3.20;1.00;;;;;;5014993;28;20174;-68
2022/12/13 03:52:43;;;;;;;1999.90;999.90;;;-3.20;1.00;;;;;;5014627;28;20275;-66
2022/12/13 03:55:09;;;;;;;1999.90;999.90;;;-3.20;1.00;;;;;;5014923;28;20580;-68
2022/12/13 03:57:34;;;;;;;1999.90;999.90;;;-3.20;1.00;;;;;;5014283;28;20200;-68
2022/12/13 04:00:00;;;;;;;1999.90;999.90;;;-3.20;1.00;;;;;;5015027;28;20493;-67
2022/12/13 04:02:25;;;;;;;1999.90;999.90;;;-3.20;1.00;;;;;;5032724;23;20243;-68
2022/12/13 04:04:51;;;;;;;1999.90;999.90;;;-3.30;1.00;;;;;;5033767;28;20160;-68
2022/12/13 04:07:17;;;;;;;1999.90;999.90;;;-3.20;1.00;;;;;;5033485;28;20199;-67
2022/12/13 04:09:42;;;;;;;1999.90;999.90;;;-3.20;1.00;;;;;;5033624;28;20205;-68
2022/12/13 04:14:52;;;;;;;1999.90;999.90;;;-3.30;1.00;;;;;;5034133;28;20656;-68
2022/12/13 04:17:17;;;;;;;1999.90;999.90;;;-3.30;1.00;;;;;;5033567;28;20181;-68
2022/12/13 04:19:43;;;;;;;1999.90;999.90;;;-3.30;1.00;;;;;;5033725;28;20652;-67
2022/12/13 04:22:09;;;;;;;1999.90;999.90;;;-3.40;1.00;;;;;;5033466;28;20202;-68
2022/12/13 04:24:34;;;;;;;1999.90;999.90;;;-3.40;1.00;;;;;;5049575;28;20183;-68
2022/12/13 04:27:00;;;;;;;1999.90;999.90;;;-3.40;1.00;;;;;;5053171;28;20645;-68
2022/12/13 04:29:26;;;;;;;1999.90;999.90;;;-3.40;1.00;;;;;;5053378;28;20168;-68
2022/12/13 04:31:52;;;;;;;1999.90;999.90;;;-3.40;1.00;;;;;;5053141;28;20188;-68
2022/12/13 04:34:17;;;;;;;1999.90;999.90;;;-3.40;1.00;;;;;;5053189;28;20164;-68
2022/12/13 04:36:43;;;;;;;1999.90;999.90;;;-3.40;1.00;;;;;;5052919;28;20251;-68
2022/12/13 04:39:08;;;;;;;1999.90;999.90;;;-3.50;1.00;;;;;;5052998;28;20175;-67
2022/12/13 04:41:36;;;;;;;1999.90;999.90;;;-3.40;1.00;;;;;;5053031;28;20266;-68
2022/12/13 04:44:03;;;;;;;1999.90;999.90;;;-3.50;1.00;;;;;;5053569;28;20171;-68
2022/12/13 04:46:29;;;;;;;1999.90;999.90;;;-3.40;1.00;;;;;;5053126;28;20265;-67
2022/12/13 04:48:54;;;;;;;1999.90;999.90;;;-3.40;1.00;;;;;;5052909;28;20172;-68
2022/12/13 04:51:20;;;;;;;1999.90;999.90;;;-3.40;1.00;;;;;;5053040;28;20218;-68
2022/12/13 04:53:46;;;;;;;1999.90;999.90;;;-3.30;1.00;;;;;;5052886;28;20167;-67
2022/12/13 04:56:11;;;;;;;1999.90;999.90;;;-3.30;1.00;;;;;;5053098;28;20163;-68
2022/12/13 04:58:37;;;;;;;1999.90;999.90;;;-3.30;1.00;;;;;;5052242;28;20706;-68
2022/12/13 05:01:07;;;;;;;1999.90;999.90;;;-3.20;1.00;;;;;;5051644;28;20176;-68
2022/12/13 05:03:33;;;;;;;1999.90;999.90;;;-3.20;1.00;;;;;;5052361;28;20176;-68
2022/12/13 05:05:58;;;;;;;1999.90;999.90;;;-3.30;1.00;;;;;;5052080;28;20237;-68
2022/12/13 05:08:24;;;;;;;1999.90;999.90;;;-3.20;1.00;;;;;;5051973;28;20222;-68
2022/12/13 05:10:49;;;;;;;1999.90;999.90;;;-3.20;1.00;;;;;;5052038;28;20164;-68
2022/12/13 05:13:15;;;;;;;1999.90;999.90;;;-3.20;1.00;;;;;;5052382;28;20202;-68
2022/12/13 05:15:40;;;;;;;1999.90;999.90;;;-3.20;1.00;;;;;;5052092;28;20160;-68
2022/12/13 05:18:07;;;;;;;1999.90;999.90;;;-3.20;1.00;;;;;;5052131;28;20171;-68
2022/12/13 05:20:36;;;;;;;1999.90;999.90;;;-3.20;1.00;;;;;;5052054;28;20250;-68
2022/12/13 05:23:01;;;;;;;1999.90;999.90;;;-3.20;1.00;;;;;;5051788;28;20208;-68
2022/12/13 05:25:27;;;;;;;1999.90;999.90;;;-3.30;1.00;;;;;;5051902;28;20563;-68
2022/12/13 05:27:53;;;;;;;1999.90;999.90;;;-3.30;1.00;;;;;;5051696;28;20167;-68
2022/12/13 05:30:19;;;;;;;1999.90;999.90;;;-3.30;1.00;;;;;;5052091;28;20167;-69
2022/12/13 05:32:45;;;;;;;1999.90;999.90;;;-3.30;1.00;;;;;;5051969;28;20196;-68
2022/12/13 05:35:12;;;;;;;1999.90;999.90;;;-3.30;1.00;;;;;;5052152;28;20659;-68
2022/12/13 05:37:38;;;;;;;1999.90;999.90;;;-3.20;1.00;;;;;;5051622;28;20746;-68
2022/12/13 05:40:04;;;;;;;1999.90;999.90;;;-3.20;1.00;;;;;;5051915;28;20233;-68
2022/12/13 05:42:30;;;;;;;1999.90;999.90;;;-3.20;1.00;;;;;;5051787;28;20191;-68
2022/12/13 05:44:56;;;;;;;1999.90;999.90;;;-3.20;1.00;;;;;;5051824;28;20184;-68
2022/12/13 05:47:21;;;;;;;1999.90;999.90;;;-3.20;1.00;;;;;;5051658;28;20261;-68
2022/12/13 05:49:47;;;;;;;1999.90;999.90;;;-3.20;1.00;;;;;;5051842;28;20164;-68
2022/12/13 05:52:20;;;;;;;1999.90;999.90;;;-3.20;1.00;;;;;;5051759;28;20186;-68
2022/12/13 05:54:46;;;;;;;1999.90;999.90;;;-3.20;1.00;;;;;;5051946;28;20258;-68
2022/12/13 05:57:12;;;;;;;1999.90;999.90;;;-3.20;5.60;;;;;;5051641;28;20210;-68
2022/12/13 05:59:38;;;;;;;1999.90;999.90;;;-3.20;12.20;;;;;;5051715;28;20521;-68
2022/12/13 06:02:04;;;;;;;1999.90;999.90;;;-3.10;14.90;;;;;;5051651;28;20671;-68
2022/12/13 06:04:29;;;;;;;1999.90;999.90;;;-3.10;16.00;;;;;;5051875;28;20164;-68
2022/12/13 06:06:55;;;;;;;1999.90;999.90;;;-3.00;16.90;;;;;;5051373;28;20191;-68
2022/12/13 06:09:21;;;;;;;1999.90;999.90;;;-3.00;5.10;;;;;;5051719;28;20174;-68
2022/12/13 06:11:48;;;;;;;1999.90;999.90;;;-3.10;1.00;;;;;;5053196;28;20190;-68
2022/12/13 06:14:14;;;;;;;1999.90;999.90;;;-3.10;1.00;;;;;;5055566;28;20174;-68
2022/12/13 06:16:40;;;;;;;1999.90;999.90;;;-3.10;1.00;;;;;;5055349;28;20528;-68
2022/12/13 06:19:05;;;;;;;1999.90;999.90;;;-3.20;1.00;;;;;;5055182;28;20179;-68
2022/12/13 06:21:32;;;;;;;1999.90;999.90;;;-3.20;1.00;;;;;;5055262;28;20188;-68
2022/12/13 06:23:57;;;;;;;1999.90;999.90;;;-3.30;1.00;;;;;;5055248;28;20222;-68
2022/12/13 06:26:23;;;;;;;1999.90;999.90;;;-3.40;1.00;;;;;;5055202;28;20199;-68
2022/12/13 06:28:48;;;;;;;1999.90;999.90;;;-3.40;1.00;;;;;;5055026;28;20160;-68
2022/12/13 06:31:14;;;;;;;1999.90;999.90;;;-3.40;1.00;;;;;;5055123;28;20254;-68
2022/12/13 06:33:40;;;;;;;1999.90;999.90;;;-3.40;1.00;;;;;;5055042;28;20168;-68
2022/12/13 06:36:06;;;;;;;1999.90;999.90;;;-3.50;1.00;;;;;;5054898;28;20171;-68
2022/12/13 06:38:32;;;;;;;1999.90;999.90;;;-3.50;1.00;;;;;;5054995;28;20168;-68
2022/12/13 06:41:12;;;;;;;1999.90;999.90;;;-3.50;1.00;;;;;;5055013;28;20249;-68
2022/12/13 06:43:41;;;;;;;1999.90;999.90;;;-3.50;1.00;;;;;;5054717;28;20167;-68
2022/12/13 06:46:07;;;;;;;1999.90;999.90;;;-3.50;1.00;;;;;;5054660;28;20242;-68
2022/12/13 06:48:32;;;;;;;1999.90;999.90;;;-3.50;1.00;;;;;;5054653;28;20172;-68
2022/12/13 06:51:05;;;;;;;1999.90;999.90;;;-3.50;1.00;;;;;;5054892;28;20715;-68
2022/12/13 06:53:31;;;;;;;1999.90;999.90;;;-3.50;1.00;;;;;;5054817;28;20175;-68
2022/12/13 06:56:09;;;;;;;1999.90;999.90;;;-3.60;1.00;;;;;;5054754;28;20191;-68
2022/12/13 06:58:35;;;;;;;1999.90;999.90;;;-3.60;1.00;;;;;;5054600;28;20463;-68
2022/12/13 07:01:06;;;;;;;1999.90;999.90;;;-3.60;1.00;;;;;;5054454;28;20175;-68
2022/12/13 07:03:33;;;;;;;1999.90;999.90;;;-3.60;1.00;;;;;;5054674;28;20172;-68
2022/12/13 07:06:02;;;;;;;1999.90;999.90;;;-3.60;1.00;;;;;;5054463;28;20199;-68
2022/12/13 07:08:27;;;;;;;1999.90;999.90;;;-3.60;1.00;;;;;;5054382;28;20175;-68
2022/12/13 07:10:54;;;;;;;1999.90;999.90;;;-3.60;1.00;;;;;;5054389;28;20164;-68
2022/12/13 07:13:20;;;;;;;1999.90;999.90;;;-3.70;1.00;;;;;;5054292;28;20310;-68
2022/12/13 07:15:46;;;;;;;1999.90;999.90;;;-3.60;1.00;;;;;;5054304;28;20184;-68
2022/12/13 07:18:12;;;;;;;1999.90;999.90;;;-3.70;1.00;;;;;;5054035;28;20179;-68
2022/12/13 07:20:39;;;;;;;1999.90;999.90;;;-3.70;1.00;;;;;;5054249;28;20899;-68
2022/12/13 07:23:05;;;;;;;1999.90;999.90;;;-3.70;1.00;;;;;;5053422;28;20433;-68
2022/12/13 07:25:30;;;;;;;1999.90;999.90;;;-3.70;1.00;;;;;;5054129;28;20179;-68
2022/12/13 07:28:02;;;;;;;1999.90;999.90;;;-3.70;1.00;;;;;;5053787;28;20214;-68
2022/12/13 07:30:28;;;;;;;1999.90;999.90;;;-3.70;1.00;;;;;;5054140;28;20176;-68
2022/12/13 07:32:54;;;;;;;1999.90;999.90;;;-3.70;1.00;;;;;;5053965;28;20586;-68
2022/12/13 07:35:19;;;;;;;1999.90;999.90;;;-3.70;1.00;;;;;;5053955;28;20167;-68
2022/12/13 07:37:45;;;;;;;1999.90;999.90;;;-3.60;1.00;;;;;;5053640;28;20605;-68
2022/12/13 07:40:11;;;;;;;1999.90;999.90;;;-3.70;1.00;;;;;;5053934;28;20171;-68
2022/12/13 07:42:36;;;;;;;1999.90;999.90;;;-3.70;1.00;;;;;;5053648;28;20183;-68
2022/12/13 07:45:02;;;;;;;1999.90;999.90;;;-3.70;1.00;;;;;;5054026;28;20425;-69
2022/12/13 07:47:29;;;;;;;1999.90;999.90;;;-3.70;1.00;;;;;;5053715;28;20206;-68
2022/12/13 07:49:55;;;;;;;1999.90;999.90;;;-3.60;1.00;;;;;;5053933;28;20175;-68
2022/12/13 07:52:21;;;;;;;1999.90;999.90;;;-3.60;1.00;;;;;;5053745;28;20200;-68
2022/12/13 07:54:46;;;;;;;1999.90;999.90;;;-3.60;1.00;;;;;;5053810;28;20489;-68
2022/12/13 07:57:12;;;;;;;1999.90;999.90;;;-3.60;1.00;;;;;;5053622;28;20168;-68
2022/12/13 07:59:38;;;;;;;1999.90;999.90;;;-3.60;1.00;;;;;;5053929;28;20168;-68
2022/12/13 08:02:12;;;;;;;1999.90;999.90;;;-3.50;1.00;;;;;;5053657;28;20204;-68
2022/12/13 08:04:37;;;;;;;1999.90;999.90;;;-3.50;1.00;;;;;;5053821;28;20175;-68
2022/12/13 08:07:07;;;;;;;1999.90;999.90;;;-3.50;1.00;;;;;;5053532;28;20565;-68
2022/12/13 08:09:33;;;;;;;1999.90;999.90;;;-3.50;1.00;;;;;;5053555;28;20179;-68
2022/12/13 08:11:59;;;;;;;1999.90;999.90;;;-3.40;1.00;;;;;;5053464;28;20192;-68
2022/12/13 08:14:25;;;;;;;1999.90;999.90;;;-3.40;1.00;;;;;;5053690;28;20175;-68
2022/12/13 08:16:50;;;;;;;1999.90;999.90;;;-3.40;1.00;;;;;;5053517;28;20179;-67
2022/12/13 08:19:16;;;;;;;1999.90;999.90;;;-3.20;1.00;;;;;;5053476;28;20171;-68
2022/12/13 08:21:41;;;;;;;1999.90;999.90;;;-3.20;1.00;;;;;;5053745;28;20253;-68
2022/12/13 08:24:07;;;;;;;1999.90;999.90;;;-3.20;1.00;;;;;;5053555;28;20629;-68
2022/12/13 08:26:33;;;;;;;1999.90;999.90;;;-3.00;1.00;;;;;;5053344;28;20199;-68
2022/12/13 08:28:58;;;;;;;1999.90;999.90;;;-3.00;1.00;;;;;;5053323;28;20168;-68
2022/12/13 08:31:24;;;;;;;1999.90;999.90;;;-2.90;1.00;;;;;;5053640;28;20604;-68
2022/12/13 08:33:50;;;;;;;1999.90;999.90;;;-2.80;1.00;;;;;;5053313;28;20171;-68
2022/12/13 08:36:16;;;;;;;1999.90;999.90;;;-2.80;1.00;;;;;;5052247;28;20437;-68
2022/12/13 08:38:43;;;;;;;1999.90;999.90;;;-2.70;1.00;;;;;;5053317;28;20539;-68
2022/12/13 08:41:09;;;;;;;1999.90;999.90;;;-2.60;1.00;;;;;;5053194;28;20261;-68
2022/12/13 08:43:35;;;;;;;1999.90;999.90;;;-2.50;1.00;;;;;;5053387;28;20263;-68
2022/12/13 08:46:01;;;;;;;1999.90;999.90;;;-2.40;1.00;;;;;;5052932;28;20203;-68
2022/12/13 08:48:27;;;;;;;1999.90;999.90;;;-2.30;1.00;;;;;;5053368;28;20397;-67
2022/12/13 08:50:52;;;;;;;1999.90;999.90;;;-2.30;1.00;;;;;;5053349;28;20172;-68
2022/12/13 08:53:18;;;;;;;1999.90;999.90;;;-2.30;1.00;;;;;;5052988;28;20247;-68
2022/12/13 08:55:44;;;;;;;1999.90;999.90;;;-2.30;1.00;;;;;;5053409;28;20195;-68
2022/12/13 08:58:10;;;;;;;1999.90;999.90;;;-2.20;1.00;;;;;;5053158;28;20767;-68
2022/12/13 09:00:37;;;;;;;1999.90;999.90;;;-2.20;1.00;;;;;;5053306;28;20156;-68
2022/12/13 09:03:04;;;;;;;1999.90;999.90;;;-2.10;1.00;;;;;;5052938;28;20681;-68
2022/12/13 09:05:30;;;;;;;1999.90;999.90;;;-2.00;1.00;;;;;;5053160;28;20693;-68
2022/12/13 09:07:57;;;;;;;1999.90;999.90;;;-2.00;1.00;;;;;;5053208;28;20172;-68
2022/12/13 09:10:23;;;;;;;1999.90;999.90;;;-1.90;1.00;;;;;;5053304;28;20200;-68
2022/12/13 09:12:49;;;;;;;1999.90;999.90;;;-1.90;1.00;;;;;;5052319;28;20685;-68
2022/12/13 09:15:15;;;;;;;1999.90;999.90;;;-1.90;1.00;;;;;;5052223;28;20176;-68
2022/12/13 09:17:40;;;;;;;1999.90;999.90;;;-1.80;1.00;;;;;;5051793;28;20414;-68
2022/12/13 09:20:08;;;;;;;1999.90;999.90;;;-1.80;1.00;;;;;;5052130;28;20179;-68
2022/12/13 09:22:34;;;;;;;1999.90;999.90;;;-1.70;1.00;;;;;;5052090;28;20192;-68
2022/12/13 09:25:03;;;;;;;1999.90;999.90;;;-1.60;1.00;;;;;;5052174;28;20210;-68
2022/12/13 09:27:30;;;;;;;1999.90;999.90;;;-1.50;1.00;;;;;;5051817;28;20245;-68
2022/12/13 09:29:56;;;;;;;1999.90;999.90;;;-1.40;1.00;;;;;;5051982;28;20175;-68
2022/12/13 09:32:22;;;;;;;1999.90;999.90;;;-1.30;1.00;;;;;;5051993;28;20192;-68
2022/12/13 09:34:48;;;;;;;1999.90;999.90;;;-1.30;1.00;;;;;;5052085;28;20195;-67
2022/12/13 09:37:14;;;;;;;1999.90;999.90;;;-1.20;1.00;;;;;;5051766;28;20234;-68
2022/12/13 09:39:39;;;;;;;1999.90;999.90;;;-1.10;1.00;;;;;;5052434;28;20167;-68
2022/12/13 09:42:29;;;;;;;1999.90;999.90;;;-1.00;1.00;;;;;;5051875;28;20195;-69
2022/12/13 09:44:58;;;;;;;1999.90;999.90;;;-0.80;1.00;;;;;;5051786;28;20187;-68
2022/12/13 09:47:35;;;;;;;1999.90;999.90;;;-0.70;1.00;;;;;;5051223;28;20236;-68
2022/12/13 09:50:05;;;;;;;1999.90;999.90;;;-0.60;1.00;;;;;;5049938;28;20186;-66
2022/12/13 09:52:37;;;;;;;1999.90;999.90;;;-0.60;1.00;;;;;;5051317;28;20330;-67
2022/12/13 09:55:15;;;;;;;1999.90;999.90;;;-0.60;1.00;;;;;;5051730;28;20176;-66
2022/12/13 09:57:42;;;;;;;1999.90;999.90;;;-0.50;1.00;;;;;;5051631;28;20258;-66
2022/12/13 10:00:14;;;;;;;1999.90;999.90;;;-0.40;1.00;;;;;;5051402;28;20667;-67
2022/12/13 10:02:56;;;;;;;1999.90;999.90;;;-0.40;1.00;;;;;;5052358;28;20231;-67
2022/12/13 10:05:34;;;;;;;1999.90;999.90;;;-0.40;99.90;;;;;;5051999;28;20171;-67
2022/12/13 10:08:04;;;;;;;1999.90;999.90;;;-0.40;99.90;;;;;;5051517;28;20608;-67
2022/12/13 10:10:30;;;;;;;1999.90;999.90;;;-0.30;99.90;;;;;;5051928;28;20175;-67
2022/12/13 10:13:11;;;;;;;1999.90;999.90;;;-0.20;99.90;;;;;;5051617;28;20191;-67
2022/12/13 10:15:42;;;;;;;1999.90;999.90;;;-0.20;99.90;;;;;;5051681;28;20164;-67
2022/12/13 10:18:13;;;;;;;1999.90;999.90;;;-0.10;99.90;;;;;;5051675;28;20218;-67
2022/12/13 10:20:40;;;;;;;1999.90;999.90;;;-0.10;99.90;;;;;;5051718;28;20246;-68
2022/12/13 10:23:06;;;;;;;1999.90;999.90;;;-0.10;99.90;;;;;;5051582;28;20200;-68
2022/12/13 10:25:50;;;;;;;1999.90;999.90;;;0.00;99.90;;;;;;5051508;28;20168;-68
2022/12/13 10:28:18;;;;;;;1999.90;999.90;;;0.10;99.90;;;;;;5051545;28;20163;-68
2022/12/13 10:30:44;;;;;;;1999.90;999.90;;;0.10;1.00;;;;;;5051529;28;20536;-68
2022/12/13 10:33:34;;;;;;;1999.90;999.90;;;0.10;15.60;;;;;;5051221;28;20187;-68
2022/12/13 10:36:07;;;;;;;1999.90;999.90;;;0.20;1.00;;;;;;5051144;28;20218;-68
2022/12/13 10:38:38;;;;;;;1999.90;999.90;;;0.30;1.00;;;;;;5051310;28;20189;-68
2022/12/13 10:41:35;;;;;;;1999.90;999.90;;;0.30;1.00;;;;;;5051154;28;20175;-68
2022/12/13 10:44:18;;;;;;;1999.90;999.90;;;0.30;1.00;;;;;;5048534;28;20834;-68
2022/12/13 10:46:57;;;;;;;1999.90;999.90;;;0.30;1.00;;;;;;5050829;28;20219;-68
2022/12/13 10:49:26;;;;;;;1999.90;999.90;;;0.30;99.90;;;;;;5051482;28;20163;-68
2022/12/13 10:51:53;;;;;;;1999.90;999.90;;;0.40;99.90;;;;;;5050895;28;20205;-68
2022/12/13 10:54:31;;;;;;;1999.90;999.90;;;0.40;99.90;;;;;;5051299;28;20176;-67
2022/12/13 10:57:00;;;;;;;1999.90;999.90;;;0.50;20.60;;;;;;5051052;28;20175;-68
2022/12/13 10:59:29;;;;;;;1999.90;999.90;;;0.50;99.90;;;;;;5053279;28;20196;-68
2022/12/13 11:01:55;;;;;;;1999.90;999.90;;;0.60;99.90;;;;;;5054567;28;20209;-67
2022/12/13 11:04:21;;;;;;;1999.90;999.90;;;0.70;1.00;;;;;;5054830;28;20172;-67
2022/12/13 11:06:47;;;;;;;1999.90;999.90;;;0.80;1.00;;;;;;5053561;28;20203;-68
2022/12/13 11:09:24;;;;;;;1999.90;999.90;;;1.00;20.00;;;;;;5054278;28;20168;-68
2022/12/13 11:11:52;;;;;;;1999.90;999.90;;;1.20;99.90;;;;;;5054570;28;20191;-68
2022/12/13 11:14:22;;;;;;;1999.90;999.90;;;1.60;1.00;;;;;;5053733;28;20159;-68
2022/12/13 11:16:56;;;;;;;1999.90;999.90;;;1.90;99.90;;;;;;5053063;28;20171;-67
2022/12/13 11:19:29;;;;;;;1999.90;999.90;;;1.90;1.00;;;;;;5053156;28;20175;-67
2022/12/13 11:21:55;;;;;;;1999.90;999.90;;;1.80;99.90;;;;;;5053503;28;20184;-67
2022/12/13 11:24:28;;;;;;;1999.90;999.90;;;1.70;1.00;;;;;;5054208;28;20267;-67
2022/12/13 11:27:27;;;;;;;1999.90;999.90;;;2.10;99.90;;;;;;5053669;28;20454;-68
2022/12/13 11:30:30;;;;;;;1999.90;999.90;;;2.50;99.90;;;;;;5029436;28;20202;-68
2022/12/13 11:33:11;;;;;;;1999.90;999.90;;;2.90;99.90;;;;;;4992224;28;20197;-67
2022/12/13 11:35:55;;;;;;;1999.90;999.90;;;3.20;99.90;;;;;;4991893;28;20202;-68
2022/12/13 11:38:46;;;;;;;1999.90;999.90;;;3.30;99.90;;;;;;5035042;28;20180;-68
2022/12/13 11:41:16;;;;;;;1999.90;999.90;;;3.60;99.90;;;;;;5053656;28;20422;-68
2022/12/13 11:44:02;;;;;;;1999.90;999.90;;;4.20;99.90;;;;;;5053994;28;20412;-68
2022/12/13 11:46:39;;;;;;;1999.90;999.90;;;4.50;1.00;;;;;;5055203;28;20528;-68
2022/12/13 11:49:17;;;;;;;1999.90;999.90;;;4.60;1.00;;;;;;5054794;28;20411;-68
2022/12/13 11:52:12;;;;;;;1999.90;999.90;;;4.70;1.00;;;;;;5054595;28;20422;-68
2022/12/13 11:54:47;;;;;;;1999.90;999.90;;;5.00;1.00;;;;;;5053455;28;20413;-68
2022/12/13 11:57:46;;;;;;;1999.90;999.90;;;5.60;1.00;;;;;;5054064;28;20471;-68
2022/12/13 12:00:39;;;;;;;1999.90;999.90;;;6.30;99.90;;;;;;5054756;28;20415;-68
2022/12/13 12:03:21;;;;;;;1999.90;999.90;;;6.20;99.90;;;;;;5054661;28;21156;-68
2022/12/13 12:06:14;;;;;;;1999.90;999.90;;;6.20;99.90;;;;;;5054416;28;20434;-68
2022/12/13 12:08:59;;;;;;;1999.90;999.90;;;6.60;99.90;;;;;;5054939;28;20403;-68
2022/12/13 12:11:46;;;;;;;1999.90;999.90;;;7.40;99.90;;;;;;5055013;28;20425;-68
2022/12/13 12:14:40;;;;;;;1999.90;999.90;;;7.90;99.90;;;;;;5054172;28;20802;-68
2022/12/13 12:17:07;;;;;;;1999.90;999.90;;;8.00;99.90;;;;;;5054224;28;20406;-68
2022/12/13 12:19:39;;;;;;;1999.90;999.90;;;8.10;99.90;;;;;;5053559;28;20406;-68
2022/12/13 12:22:26;;;;;;;1999.90;999.90;;;8.30;99.90;;;;;;5053978;28;20818;-69
2022/12/13 12:25:11;;;;;;;1999.90;999.90;;;8.10;99.90;;;;;;5054540;28;20461;-69
2022/12/13 12:27:54;;;;;;;1999.90;999.90;;;7.80;99.90;;;;;;5053268;28;20454;-67